sensor_id;sensor_type;location;lat;lon;timestamp;P1;durP1;ratioP1;P2;durP2;ratioP2
18320;SDS011;54904;54.350;18.664;2023-12-07T00:01:40;25.87;;;12.07;;
18320;SDS011;54904;54.350;18.664;2023-12-07T00:04:07;31.20;;;14.93;;
18320;SDS011;54904;54.350;18.664;2023-12-07T00:06:34;38.47;;;16.77;;
18320;SDS011;54904;54.350;18.664;2023-12-07T00:09:01;37.10;;;16.30;;
18320;SDS011;54904;54.350;18.664;2023-12-07T00:11:29;38.17;;;16.13;;
18320;SDS011;54904;54.350;18.664;2023-12-07T00:13:57;31.03;;;14.17;;
18320;SDS011;54904;54.350;18.664;2023-12-07T00:16:25;29.17;;;13.67;;
18320;SDS011;54904;54.350;18.664;2023-12-07T00:18:52;42.87;;;17.57;;
18320;SDS011;54904;54.350;18.664;2023-12-07T00:21:19;30.93;;;14.30;;
18320;SDS011;54904;54.350;18.664;2023-12-07T00:23:46;31.37;;;13.73;;
18320;SDS011;54904;54.350;18.664;2023-12-07T00:26:13;35.37;;;15.37;;
18320;SDS011;54904;54.350;18.664;2023-12-07T00:28:40;31.27;;;14.17;;
18320;SDS011;54904;54.350;18.664;2023-12-07T00:31:08;29.80;;;13.00;;
18320;SDS011;54904;54.350;18.664;2023-12-07T00:33:36;35.30;;;15.77;;
18320;SDS011;54904;54.350;18.664;2023-12-07T00:36:03;34.40;;;15.83;;
18320;SDS011;54904;54.350;18.664;2023-12-07T00:38:30;38.13;;;15.60;;
18320;SDS011;54904;54.350;18.664;2023-12-07T00:40:57;31.27;;;14.47;;
18320;SDS011;54904;54.350;18.664;2023-12-07T00:43:24;35.37;;;14.10;;
18320;SDS011;54904;54.350;18.664;2023-12-07T00:45:52;32.03;;;14.10;;
18320;SDS011;54904;54.350;18.664;2023-12-07T00:48:20;35.27;;;14.50;;
18320;SDS011;54904;54.350;18.664;2023-12-07T00:50:47;26.33;;;12.50;;
18320;SDS011;54904;54.350;18.664;2023-12-07T00:53:14;35.17;;;14.37;;
18320;SDS011;54904;54.350;18.664;2023-12-07T00:55:41;32.27;;;13.53;;
18320;SDS011;54904;54.350;18.664;2023-12-07T00:58:08;28.93;;;13.20;;
18320;SDS011;54904;54.350;18.664;2023-12-07T01:00:35;33.93;;;14.70;;
18320;SDS011;54904;54.350;18.664;2023-12-07T01:03:02;38.30;;;16.37;;
18320;SDS011;54904;54.350;18.664;2023-12-07T01:05:31;32.87;;;14.17;;
18320;SDS011;54904;54.350;18.664;2023-12-07T01:07:58;28.77;;;13.30;;
18320;SDS011;54904;54.350;18.664;2023-12-07T01:10:25;27.67;;;12.23;;
18320;SDS011;54904;54.350;18.664;2023-12-07T01:12:52;39.43;;;15.93;;
18320;SDS011;54904;54.350;18.664;2023-12-07T01:15:19;36.47;;;15.30;;
18320;SDS011;54904;54.350;18.664;2023-12-07T01:17:46;27.73;;;12.40;;
18320;SDS011;54904;54.350;18.664;2023-12-07T01:20:13;29.10;;;12.87;;
18320;SDS011;54904;54.350;18.664;2023-12-07T01:22:41;27.73;;;12.30;;
18320;SDS011;54904;54.350;18.664;2023-12-07T01:25:08;33.10;;;14.83;;
18320;SDS011;54904;54.350;18.664;2023-12-07T01:27:35;28.90;;;12.40;;
18320;SDS011;54904;54.350;18.664;2023-12-07T01:30:03;27.17;;;12.33;;
18320;SDS011;54904;54.350;18.664;2023-12-07T01:32:30;31.77;;;13.23;;
18320;SDS011;54904;54.350;18.664;2023-12-07T01:34:58;36.80;;;16.03;;
18320;SDS011;54904;54.350;18.664;2023-12-07T01:37:25;28.40;;;12.83;;
18320;SDS011;54904;54.350;18.664;2023-12-07T01:39:54;29.47;;;12.87;;
18320;SDS011;54904;54.350;18.664;2023-12-07T01:42:21;38.80;;;15.43;;
18320;SDS011;54904;54.350;18.664;2023-12-07T01:44:48;33.03;;;14.83;;
18320;SDS011;54904;54.350;18.664;2023-12-07T01:47:15;33.17;;;14.23;;
18320;SDS011;54904;54.350;18.664;2023-12-07T01:49:42;27.73;;;12.83;;
18320;SDS011;54904;54.350;18.664;2023-12-07T01:52:10;29.63;;;12.93;;
18320;SDS011;54904;54.350;18.664;2023-12-07T01:54:38;32.07;;;14.20;;
18320;SDS011;54904;54.350;18.664;2023-12-07T01:57:07;28.47;;;12.60;;
18320;SDS011;54904;54.350;18.664;2023-12-07T01:59:34;34.17;;;13.90;;
18320;SDS011;54904;54.350;18.664;2023-12-07T02:02:02;23.67;;;10.93;;
18320;SDS011;54904;54.350;18.664;2023-12-07T02:04:29;27.07;;;11.93;;
18320;SDS011;54904;54.350;18.664;2023-12-07T02:06:57;26.40;;;12.67;;
18320;SDS011;54904;54.350;18.664;2023-12-07T02:09:26;29.77;;;12.93;;
18320;SDS011;54904;54.350;18.664;2023-12-07T02:11:53;32.07;;;14.13;;
18320;SDS011;54904;54.350;18.664;2023-12-07T02:14:21;28.23;;;12.67;;
18320;SDS011;54904;54.350;18.664;2023-12-07T02:16:50;29.20;;;12.43;;
18320;SDS011;54904;54.350;18.664;2023-12-07T02:19:24;29.23;;;12.33;;
18320;SDS011;54904;54.350;18.664;2023-12-07T02:22:17;33.97;;;14.43;;
18320;SDS011;54904;54.350;18.664;2023-12-07T02:24:52;29.30;;;12.93;;
18320;SDS011;54904;54.350;18.664;2023-12-07T02:27:36;36.77;;;14.97;;
18320;SDS011;54904;54.350;18.664;2023-12-07T02:30:04;35.63;;;15.83;;
18320;SDS011;54904;54.350;18.664;2023-12-07T02:32:32;36.67;;;15.07;;
18320;SDS011;54904;54.350;18.664;2023-12-07T02:34:59;27.07;;;12.63;;
18320;SDS011;54904;54.350;18.664;2023-12-07T02:37:27;21.73;;;11.23;;
18320;SDS011;54904;54.350;18.664;2023-12-07T02:39:56;35.77;;;15.23;;
18320;SDS011;54904;54.350;18.664;2023-12-07T02:42:24;31.40;;;13.33;;
18320;SDS011;54904;54.350;18.664;2023-12-07T02:44:53;33.10;;;14.73;;
18320;SDS011;54904;54.350;18.664;2023-12-07T02:47:20;28.27;;;12.63;;
18320;SDS011;54904;54.350;18.664;2023-12-07T02:49:47;30.13;;;13.57;;
18320;SDS011;54904;54.350;18.664;2023-12-07T02:52:14;33.63;;;14.00;;
18320;SDS011;54904;54.350;18.664;2023-12-07T02:54:42;27.23;;;12.77;;
18320;SDS011;54904;54.350;18.664;2023-12-07T02:57:09;36.63;;;14.37;;
18320;SDS011;54904;54.350;18.664;2023-12-07T02:59:36;34.87;;;15.80;;
18320;SDS011;54904;54.350;18.664;2023-12-07T03:02:04;32.57;;;14.80;;
18320;SDS011;54904;54.350;18.664;2023-12-07T03:04:32;30.80;;;14.20;;
18320;SDS011;54904;54.350;18.664;2023-12-07T03:06:59;32.20;;;14.43;;
18320;SDS011;54904;54.350;18.664;2023-12-07T03:09:26;26.60;;;12.97;;
18320;SDS011;54904;54.350;18.664;2023-12-07T03:11:53;26.20;;;12.63;;
18320;SDS011;54904;54.350;18.664;2023-12-07T03:14:20;23.50;;;10.93;;
18320;SDS011;54904;54.350;18.664;2023-12-07T03:16:47;22.80;;;10.77;;
18320;SDS011;54904;54.350;18.664;2023-12-07T03:19:15;28.63;;;13.47;;
18320;SDS011;54904;54.350;18.664;2023-12-07T03:21:42;31.33;;;13.80;;
18320;SDS011;54904;54.350;18.664;2023-12-07T03:24:10;26.47;;;12.10;;
18320;SDS011;54904;54.350;18.664;2023-12-07T03:26:37;33.63;;;14.47;;
18320;SDS011;54904;54.350;18.664;2023-12-07T03:29:04;32.57;;;14.57;;
18320;SDS011;54904;54.350;18.664;2023-12-07T03:31:31;31.03;;;14.03;;
18320;SDS011;54904;54.350;18.664;2023-12-07T03:33:58;31.17;;;13.83;;
18320;SDS011;54904;54.350;18.664;2023-12-07T03:36:27;34.50;;;14.80;;
18320;SDS011;54904;54.350;18.664;2023-12-07T03:38:55;35.23;;;15.93;;
18320;SDS011;54904;54.350;18.664;2023-12-07T03:41:21;29.27;;;12.83;;
18320;SDS011;54904;54.350;18.664;2023-12-07T03:43:49;28.83;;;12.60;;
18320;SDS011;54904;54.350;18.664;2023-12-07T03:46:16;23.93;;;12.00;;
18320;SDS011;54904;54.350;18.664;2023-12-07T03:48:43;34.13;;;14.27;;
18320;SDS011;54904;54.350;18.664;2023-12-07T03:51:12;35.93;;;15.17;;
18320;SDS011;54904;54.350;18.664;2023-12-07T03:53:41;28.90;;;13.63;;
18320;SDS011;54904;54.350;18.664;2023-12-07T03:56:09;27.23;;;12.97;;
18320;SDS011;54904;54.350;18.664;2023-12-07T03:58:36;34.50;;;15.67;;
18320;SDS011;54904;54.350;18.664;2023-12-07T04:01:03;32.50;;;15.10;;
18320;SDS011;54904;54.350;18.664;2023-12-07T04:03:30;29.97;;;14.13;;
18320;SDS011;54904;54.350;18.664;2023-12-07T04:05:57;25.13;;;11.27;;
18320;SDS011;54904;54.350;18.664;2023-12-07T04:08:24;20.13;;;10.23;;
18320;SDS011;54904;54.350;18.664;2023-12-07T04:10:53;26.53;;;12.37;;
18320;SDS011;54904;54.350;18.664;2023-12-07T04:13:20;29.97;;;12.73;;
18320;SDS011;54904;54.350;18.664;2023-12-07T04:15:47;29.97;;;13.50;;
18320;SDS011;54904;54.350;18.664;2023-12-07T04:18:14;33.77;;;14.03;;
18320;SDS011;54904;54.350;18.664;2023-12-07T04:20:41;31.57;;;13.83;;
18320;SDS011;54904;54.350;18.664;2023-12-07T04:23:08;29.77;;;14.07;;
18320;SDS011;54904;54.350;18.664;2023-12-07T04:25:35;33.90;;;15.63;;
18320;SDS011;54904;54.350;18.664;2023-12-07T04:28:03;29.40;;;13.20;;
18320;SDS011;54904;54.350;18.664;2023-12-07T04:30:30;30.73;;;13.10;;
18320;SDS011;54904;54.350;18.664;2023-12-07T04:32:57;29.07;;;13.10;;
18320;SDS011;54904;54.350;18.664;2023-12-07T04:35:24;31.53;;;13.57;;
18320;SDS011;54904;54.350;18.664;2023-12-07T04:37:53;34.93;;;14.43;;
18320;SDS011;54904;54.350;18.664;2023-12-07T04:40:20;37.17;;;15.67;;
18320;SDS011;54904;54.350;18.664;2023-12-07T04:42:47;29.00;;;12.83;;
18320;SDS011;54904;54.350;18.664;2023-12-07T04:45:16;28.57;;;13.33;;
18320;SDS011;54904;54.350;18.664;2023-12-07T04:47:43;33.23;;;14.80;;
18320;SDS011;54904;54.350;18.664;2023-12-07T04:50:10;34.50;;;14.30;;
18320;SDS011;54904;54.350;18.664;2023-12-07T04:52:37;38.50;;;15.70;;
18320;SDS011;54904;54.350;18.664;2023-12-07T04:55:05;34.77;;;15.80;;
18320;SDS011;54904;54.350;18.664;2023-12-07T04:57:33;37.07;;;15.33;;
18320;SDS011;54904;54.350;18.664;2023-12-07T05:00:00;30.03;;;13.70;;
18320;SDS011;54904;54.350;18.664;2023-12-07T05:02:32;29.93;;;12.20;;
18320;SDS011;54904;54.350;18.664;2023-12-07T05:04:59;36.83;;;15.07;;
18320;SDS011;54904;54.350;18.664;2023-12-07T05:07:26;34.83;;;14.30;;
18320;SDS011;54904;54.350;18.664;2023-12-07T05:09:53;31.30;;;13.83;;
18320;SDS011;54904;54.350;18.664;2023-12-07T05:12:20;29.30;;;12.37;;
18320;SDS011;54904;54.350;18.664;2023-12-07T05:14:47;28.90;;;12.83;;
18320;SDS011;54904;54.350;18.664;2023-12-07T05:17:15;31.97;;;12.70;;
18320;SDS011;54904;54.350;18.664;2023-12-07T05:19:45;33.00;;;14.03;;
18320;SDS011;54904;54.350;18.664;2023-12-07T05:22:12;33.47;;;14.77;;
18320;SDS011;54904;54.350;18.664;2023-12-07T05:24:40;32.63;;;13.80;;
18320;SDS011;54904;54.350;18.664;2023-12-07T05:27:07;25.53;;;11.60;;
18320;SDS011;54904;54.350;18.664;2023-12-07T05:29:34;23.23;;;10.17;;
18320;SDS011;54904;54.350;18.664;2023-12-07T05:32:01;29.50;;;12.63;;
18320;SDS011;54904;54.350;18.664;2023-12-07T05:34:29;31.13;;;13.03;;
18320;SDS011;54904;54.350;18.664;2023-12-07T05:36:57;25.13;;;10.97;;
18320;SDS011;54904;54.350;18.664;2023-12-07T05:39:24;23.73;;;10.53;;
18320;SDS011;54904;54.350;18.664;2023-12-07T05:41:52;28.60;;;11.03;;
18320;SDS011;54904;54.350;18.664;2023-12-07T05:44:19;20.77;;;9.83;;
18320;SDS011;54904;54.350;18.664;2023-12-07T05:46:47;29.17;;;12.30;;
18320;SDS011;54904;54.350;18.664;2023-12-07T05:49:14;28.67;;;12.23;;
18320;SDS011;54904;54.350;18.664;2023-12-07T05:51:41;30.67;;;13.23;;
18320;SDS011;54904;54.350;18.664;2023-12-07T05:54:10;33.00;;;13.50;;
18320;SDS011;54904;54.350;18.664;2023-12-07T05:56:37;32.00;;;12.20;;
18320;SDS011;54904;54.350;18.664;2023-12-07T05:59:04;28.03;;;12.30;;
18320;SDS011;54904;54.350;18.664;2023-12-07T06:01:31;29.67;;;13.20;;
18320;SDS011;54904;54.350;18.664;2023-12-07T06:03:58;30.07;;;12.37;;
18320;SDS011;54904;54.350;18.664;2023-12-07T06:06:25;31.63;;;13.50;;
18320;SDS011;54904;54.350;18.664;2023-12-07T06:08:52;33.33;;;13.53;;
18320;SDS011;54904;54.350;18.664;2023-12-07T06:11:21;26.67;;;12.23;;
18320;SDS011;54904;54.350;18.664;2023-12-07T06:13:47;24.80;;;10.83;;
18320;SDS011;54904;54.350;18.664;2023-12-07T06:16:15;26.77;;;11.53;;
18320;SDS011;54904;54.350;18.664;2023-12-07T06:18:42;29.43;;;12.60;;
18320;SDS011;54904;54.350;18.664;2023-12-07T06:21:09;31.93;;;13.30;;
18320;SDS011;54904;54.350;18.664;2023-12-07T06:23:37;27.03;;;11.77;;
18320;SDS011;54904;54.350;18.664;2023-12-07T06:26:04;24.97;;;11.07;;
18320;SDS011;54904;54.350;18.664;2023-12-07T06:28:33;20.53;;;10.00;;
18320;SDS011;54904;54.350;18.664;2023-12-07T06:31:04;24.77;;;11.07;;
18320;SDS011;54904;54.350;18.664;2023-12-07T06:33:32;26.80;;;11.33;;
18320;SDS011;54904;54.350;18.664;2023-12-07T06:36:00;24.33;;;11.83;;
18320;SDS011;54904;54.350;18.664;2023-12-07T06:38:28;24.13;;;11.00;;
18320;SDS011;54904;54.350;18.664;2023-12-07T06:40:55;27.17;;;10.80;;
18320;SDS011;54904;54.350;18.664;2023-12-07T06:43:23;25.23;;;11.57;;
18320;SDS011;54904;54.350;18.664;2023-12-07T06:45:51;29.03;;;12.67;;
18320;SDS011;54904;54.350;18.664;2023-12-07T06:48:18;32.50;;;14.10;;
18320;SDS011;54904;54.350;18.664;2023-12-07T06:50:46;28.93;;;12.07;;
18320;SDS011;54904;54.350;18.664;2023-12-07T06:53:13;24.30;;;11.30;;
18320;SDS011;54904;54.350;18.664;2023-12-07T06:55:41;28.83;;;11.70;;
18320;SDS011;54904;54.350;18.664;2023-12-07T06:58:08;29.97;;;12.43;;
18320;SDS011;54904;54.350;18.664;2023-12-07T07:00:36;30.83;;;12.27;;
18320;SDS011;54904;54.350;18.664;2023-12-07T07:03:04;31.60;;;12.83;;
18320;SDS011;54904;54.350;18.664;2023-12-07T07:05:32;27.47;;;13.20;;
18320;SDS011;54904;54.350;18.664;2023-12-07T07:07:59;28.53;;;12.03;;
18320;SDS011;54904;54.350;18.664;2023-12-07T07:10:26;31.33;;;13.07;;
18320;SDS011;54904;54.350;18.664;2023-12-07T07:12:53;25.07;;;11.57;;
18320;SDS011;54904;54.350;18.664;2023-12-07T07:15:20;29.37;;;13.13;;
18320;SDS011;54904;54.350;18.664;2023-12-07T07:17:49;23.23;;;11.03;;
18320;SDS011;54904;54.350;18.664;2023-12-07T07:20:18;25.13;;;10.47;;
18320;SDS011;54904;54.350;18.664;2023-12-07T07:22:45;20.43;;;9.77;;
18320;SDS011;54904;54.350;18.664;2023-12-07T07:25:13;21.33;;;9.30;;
18320;SDS011;54904;54.350;18.664;2023-12-07T07:27:41;29.63;;;12.63;;
18320;SDS011;54904;54.350;18.664;2023-12-07T07:30:08;30.87;;;14.43;;
18320;SDS011;54904;54.350;18.664;2023-12-07T07:32:36;28.90;;;11.60;;
18320;SDS011;54904;54.350;18.664;2023-12-07T07:35:03;27.40;;;12.23;;
18320;SDS011;54904;54.350;18.664;2023-12-07T07:37:33;28.80;;;12.90;;
18320;SDS011;54904;54.350;18.664;2023-12-07T07:40:00;28.07;;;11.93;;
18320;SDS011;54904;54.350;18.664;2023-12-07T07:42:31;23.57;;;11.30;;
18320;SDS011;54904;54.350;18.664;2023-12-07T07:44:58;28.53;;;11.37;;
18320;SDS011;54904;54.350;18.664;2023-12-07T07:47:25;28.50;;;12.87;;
18320;SDS011;54904;54.350;18.664;2023-12-07T07:49:52;31.17;;;13.27;;
18320;SDS011;54904;54.350;18.664;2023-12-07T07:52:20;29.07;;;12.67;;
18320;SDS011;54904;54.350;18.664;2023-12-07T07:54:48;32.10;;;13.33;;
18320;SDS011;54904;54.350;18.664;2023-12-07T07:57:15;24.90;;;11.17;;
18320;SDS011;54904;54.350;18.664;2023-12-07T07:59:42;23.40;;;10.53;;
18320;SDS011;54904;54.350;18.664;2023-12-07T08:02:09;27.53;;;12.77;;
18320;SDS011;54904;54.350;18.664;2023-12-07T08:04:36;28.57;;;11.67;;
18320;SDS011;54904;54.350;18.664;2023-12-07T08:07:03;25.90;;;10.37;;
18320;SDS011;54904;54.350;18.664;2023-12-07T08:09:33;23.00;;;9.83;;
18320;SDS011;54904;54.350;18.664;2023-12-07T08:12:01;25.90;;;12.00;;
18320;SDS011;54904;54.350;18.664;2023-12-07T08:14:28;22.17;;;9.93;;
18320;SDS011;54904;54.350;18.664;2023-12-07T08:16:55;25.93;;;11.13;;
18320;SDS011;54904;54.350;18.664;2023-12-07T08:19:22;32.53;;;14.03;;
18320;SDS011;54904;54.350;18.664;2023-12-07T08:21:52;26.70;;;12.07;;
18320;SDS011;54904;54.350;18.664;2023-12-07T08:24:19;29.63;;;13.03;;
18320;SDS011;54904;54.350;18.664;2023-12-07T08:26:46;29.00;;;11.73;;
18320;SDS011;54904;54.350;18.664;2023-12-07T08:29:15;29.30;;;12.40;;
18320;SDS011;54904;54.350;18.664;2023-12-07T08:31:42;24.03;;;11.23;;
18320;SDS011;54904;54.350;18.664;2023-12-07T08:34:09;23.33;;;10.63;;
18320;SDS011;54904;54.350;18.664;2023-12-07T08:36:36;29.87;;;13.87;;
18320;SDS011;54904;54.350;18.664;2023-12-07T08:39:04;28.03;;;12.10;;
18320;SDS011;54904;54.350;18.664;2023-12-07T08:41:34;24.17;;;11.30;;
18320;SDS011;54904;54.350;18.664;2023-12-07T08:44:01;23.00;;;10.93;;
18320;SDS011;54904;54.350;18.664;2023-12-07T08:46:30;29.53;;;13.47;;
18320;SDS011;54904;54.350;18.664;2023-12-07T08:48:57;34.27;;;15.47;;
18320;SDS011;54904;54.350;18.664;2023-12-07T08:51:24;38.20;;;15.30;;
18320;SDS011;54904;54.350;18.664;2023-12-07T08:53:51;36.17;;;16.33;;
18320;SDS011;54904;54.350;18.664;2023-12-07T08:56:18;38.80;;;16.87;;
18320;SDS011;54904;54.350;18.664;2023-12-07T08:58:45;35.60;;;16.40;;
18320;SDS011;54904;54.350;18.664;2023-12-07T09:01:12;41.60;;;17.13;;
18320;SDS011;54904;54.350;18.664;2023-12-07T09:03:41;39.77;;;16.93;;
18320;SDS011;54904;54.350;18.664;2023-12-07T09:06:08;45.10;;;18.40;;
18320;SDS011;54904;54.350;18.664;2023-12-07T09:08:35;41.07;;;17.47;;
18320;SDS011;54904;54.350;18.664;2023-12-07T09:11:02;40.90;;;16.60;;
18320;SDS011;54904;54.350;18.664;2023-12-07T09:13:29;34.33;;;15.37;;
18320;SDS011;54904;54.350;18.664;2023-12-07T09:15:56;37.20;;;16.00;;
18320;SDS011;54904;54.350;18.664;2023-12-07T09:18:23;43.77;;;18.83;;
18320;SDS011;54904;54.350;18.664;2023-12-07T09:20:52;37.93;;;16.53;;
18320;SDS011;54904;54.350;18.664;2023-12-07T09:23:19;34.93;;;15.37;;
18320;SDS011;54904;54.350;18.664;2023-12-07T09:25:46;32.47;;;14.27;;
18320;SDS011;54904;54.350;18.664;2023-12-07T09:28:13;30.50;;;13.13;;
18320;SDS011;54904;54.350;18.664;2023-12-07T09:30:40;37.70;;;15.57;;
18320;SDS011;54904;54.350;18.664;2023-12-07T09:33:08;29.97;;;13.90;;
18320;SDS011;54904;54.350;18.664;2023-12-07T09:35:35;30.37;;;13.27;;
18320;SDS011;54904;54.350;18.664;2023-12-07T09:38:03;35.07;;;15.17;;
18320;SDS011;54904;54.350;18.664;2023-12-07T09:40:30;41.87;;;17.07;;
18320;SDS011;54904;54.350;18.664;2023-12-07T09:42:57;40.37;;;16.67;;
18320;SDS011;54904;54.350;18.664;2023-12-07T09:45:24;40.23;;;15.70;;
18320;SDS011;54904;54.350;18.664;2023-12-07T09:47:52;33.23;;;14.33;;
18320;SDS011;54904;54.350;18.664;2023-12-07T09:50:20;37.23;;;15.97;;
18320;SDS011;54904;54.350;18.664;2023-12-07T09:52:48;39.37;;;16.40;;
18320;SDS011;54904;54.350;18.664;2023-12-07T09:55:18;30.20;;;14.17;;
18320;SDS011;54904;54.350;18.664;2023-12-07T09:57:47;36.43;;;16.23;;
18320;SDS011;54904;54.350;18.664;2023-12-07T10:00:15;35.10;;;15.37;;
18320;SDS011;54904;54.350;18.664;2023-12-07T10:02:43;37.43;;;16.33;;
18320;SDS011;54904;54.350;18.664;2023-12-07T10:05:13;35.90;;;15.53;;
18320;SDS011;54904;54.350;18.664;2023-12-07T10:07:42;32.33;;;14.40;;
18320;SDS011;54904;54.350;18.664;2023-12-07T10:10:11;32.33;;;15.57;;
18320;SDS011;54904;54.350;18.664;2023-12-07T10:12:45;35.67;;;15.27;;
18320;SDS011;54904;54.350;18.664;2023-12-07T10:15:13;44.97;;;18.40;;
18320;SDS011;54904;54.350;18.664;2023-12-07T10:17:48;36.30;;;15.43;;
18320;SDS011;54904;54.350;18.664;2023-12-07T10:20:16;38.10;;;15.43;;
18320;SDS011;54904;54.350;18.664;2023-12-07T10:22:45;29.00;;;13.13;;
18320;SDS011;54904;54.350;18.664;2023-12-07T10:25:12;40.93;;;16.23;;
18320;SDS011;54904;54.350;18.664;2023-12-07T10:27:40;29.70;;;13.67;;
18320;SDS011;54904;54.350;18.664;2023-12-07T10:30:13;33.07;;;14.60;;
18320;SDS011;54904;54.350;18.664;2023-12-07T10:32:40;31.83;;;13.57;;
18320;SDS011;54904;54.350;18.664;2023-12-07T10:35:08;38.03;;;17.10;;
18320;SDS011;54904;54.350;18.664;2023-12-07T10:37:35;39.57;;;15.87;;
18320;SDS011;54904;54.350;18.664;2023-12-07T10:40:03;30.77;;;15.03;;
18320;SDS011;54904;54.350;18.664;2023-12-07T10:42:33;29.77;;;13.80;;
18320;SDS011;54904;54.350;18.664;2023-12-07T10:45:04;29.23;;;13.07;;
18320;SDS011;54904;54.350;18.664;2023-12-07T10:47:35;29.47;;;12.57;;
18320;SDS011;54904;54.350;18.664;2023-12-07T10:50:05;38.17;;;16.03;;
18320;SDS011;54904;54.350;18.664;2023-12-07T10:52:36;34.37;;;14.60;;
18320;SDS011;54904;54.350;18.664;2023-12-07T10:55:12;35.27;;;14.83;;
18320;SDS011;54904;54.350;18.664;2023-12-07T10:57:43;34.67;;;15.77;;
18320;SDS011;54904;54.350;18.664;2023-12-07T11:00:12;35.50;;;15.30;;
18320;SDS011;54904;54.350;18.664;2023-12-07T11:02:41;38.53;;;16.13;;
18320;SDS011;54904;54.350;18.664;2023-12-07T11:05:10;37.87;;;16.17;;
18320;SDS011;54904;54.350;18.664;2023-12-07T11:07:41;38.57;;;16.43;;
18320;SDS011;54904;54.350;18.664;2023-12-07T11:10:12;39.03;;;15.70;;
18320;SDS011;54904;54.350;18.664;2023-12-07T11:12:47;45.93;;;18.73;;
18320;SDS011;54904;54.350;18.664;2023-12-07T11:15:19;42.73;;;18.13;;
18320;SDS011;54904;54.350;18.664;2023-12-07T11:17:51;37.87;;;15.20;;
18320;SDS011;54904;54.350;18.664;2023-12-07T11:20:20;34.47;;;16.23;;
18320;SDS011;54904;54.350;18.664;2023-12-07T11:22:49;33.37;;;15.37;;
18320;SDS011;54904;54.350;18.664;2023-12-07T11:25:17;33.40;;;15.47;;
18320;SDS011;54904;54.350;18.664;2023-12-07T11:27:44;38.50;;;17.53;;
18320;SDS011;54904;54.350;18.664;2023-12-07T11:30:14;36.03;;;16.93;;
18320;SDS011;54904;54.350;18.664;2023-12-07T11:32:42;43.17;;;19.63;;
18320;SDS011;54904;54.350;18.664;2023-12-07T11:35:15;41.97;;;18.70;;
18320;SDS011;54904;54.350;18.664;2023-12-07T11:38:01;45.37;;;19.17;;
18320;SDS011;54904;54.350;18.664;2023-12-07T11:40:31;39.13;;;17.40;;
18320;SDS011;54904;54.350;18.664;2023-12-07T11:43:02;42.30;;;17.97;;
18320;SDS011;54904;54.350;18.664;2023-12-07T11:45:40;44.17;;;18.70;;
18320;SDS011;54904;54.350;18.664;2023-12-07T11:48:09;45.20;;;18.90;;
18320;SDS011;54904;54.350;18.664;2023-12-07T11:50:52;39.07;;;18.00;;
18320;SDS011;54904;54.350;18.664;2023-12-07T11:53:30;53.80;;;19.47;;
18320;SDS011;54904;54.350;18.664;2023-12-07T11:55:58;39.50;;;18.30;;
18320;SDS011;54904;54.350;18.664;2023-12-07T11:58:26;43.30;;;18.00;;
18320;SDS011;54904;54.350;18.664;2023-12-07T12:00:54;42.53;;;17.73;;
18320;SDS011;54904;54.350;18.664;2023-12-07T12:03:22;37.93;;;15.90;;
18320;SDS011;54904;54.350;18.664;2023-12-07T12:05:52;34.27;;;15.57;;
18320;SDS011;54904;54.350;18.664;2023-12-07T12:08:20;32.90;;;14.13;;
18320;SDS011;54904;54.350;18.664;2023-12-07T12:10:47;28.53;;;12.40;;
18320;SDS011;54904;54.350;18.664;2023-12-07T12:13:17;31.20;;;13.90;;
18320;SDS011;54904;54.350;18.664;2023-12-07T12:15:45;39.90;;;17.67;;
18320;SDS011;54904;54.350;18.664;2023-12-07T12:18:12;38.30;;;16.07;;
18320;SDS011;54904;54.350;18.664;2023-12-07T12:20:41;43.13;;;19.53;;
18320;SDS011;54904;54.350;18.664;2023-12-07T12:23:12;45.23;;;18.60;;
18320;SDS011;54904;54.350;18.664;2023-12-07T12:25:39;46.40;;;19.33;;
18320;SDS011;54904;54.350;18.664;2023-12-07T12:28:07;43.90;;;18.20;;
18320;SDS011;54904;54.350;18.664;2023-12-07T12:30:35;39.77;;;18.07;;
18320;SDS011;54904;54.350;18.664;2023-12-07T12:33:02;33.70;;;15.73;;
18320;SDS011;54904;54.350;18.664;2023-12-07T12:35:29;34.70;;;14.63;;
18320;SDS011;54904;54.350;18.664;2023-12-07T12:37:57;46.10;;;19.37;;
18320;SDS011;54904;54.350;18.664;2023-12-07T12:40:27;41.23;;;17.20;;
18320;SDS011;54904;54.350;18.664;2023-12-07T12:42:57;37.90;;;15.77;;
18320;SDS011;54904;54.350;18.664;2023-12-07T12:45:25;32.60;;;13.73;;
18320;SDS011;54904;54.350;18.664;2023-12-07T12:47:52;37.60;;;15.10;;
18320;SDS011;54904;54.350;18.664;2023-12-07T12:50:33;27.60;;;13.37;;
18320;SDS011;54904;54.350;18.664;2023-12-07T12:53:02;32.43;;;13.47;;
18320;SDS011;54904;54.350;18.664;2023-12-07T12:55:32;41.47;;;16.83;;
18320;SDS011;54904;54.350;18.664;2023-12-07T12:58:01;35.90;;;15.50;;
18320;SDS011;54904;54.350;18.664;2023-12-07T13:00:30;38.47;;;17.13;;
18320;SDS011;54904;54.350;18.664;2023-12-07T13:02:59;35.23;;;15.63;;
18320;SDS011;54904;54.350;18.664;2023-12-07T13:05:26;36.53;;;16.37;;
18320;SDS011;54904;54.350;18.664;2023-12-07T13:07:53;35.40;;;14.33;;
18320;SDS011;54904;54.350;18.664;2023-12-07T13:10:21;29.83;;;13.47;;
18320;SDS011;54904;54.350;18.664;2023-12-07T13:12:49;27.40;;;12.97;;
18320;SDS011;54904;54.350;18.664;2023-12-07T13:15:16;32.13;;;15.30;;
18320;SDS011;54904;54.350;18.664;2023-12-07T13:17:43;36.57;;;16.13;;
18320;SDS011;54904;54.350;18.664;2023-12-07T13:20:11;40.33;;;17.37;;
18320;SDS011;54904;54.350;18.664;2023-12-07T13:22:39;43.00;;;18.50;;
18320;SDS011;54904;54.350;18.664;2023-12-07T13:25:08;40.30;;;17.80;;
18320;SDS011;54904;54.350;18.664;2023-12-07T13:27:37;39.47;;;15.13;;
18320;SDS011;54904;54.350;18.664;2023-12-07T13:30:06;35.93;;;16.20;;
18320;SDS011;54904;54.350;18.664;2023-12-07T13:32:34;38.50;;;16.33;;
18320;SDS011;54904;54.350;18.664;2023-12-07T13:35:02;36.73;;;15.97;;
18320;SDS011;54904;54.350;18.664;2023-12-07T13:37:30;44.47;;;19.00;;
18320;SDS011;54904;54.350;18.664;2023-12-07T13:39:57;42.50;;;18.13;;
18320;SDS011;54904;54.350;18.664;2023-12-07T13:42:25;41.27;;;17.87;;
18320;SDS011;54904;54.350;18.664;2023-12-07T13:44:53;42.47;;;18.10;;
18320;SDS011;54904;54.350;18.664;2023-12-07T13:47:24;45.33;;;18.13;;
18320;SDS011;54904;54.350;18.664;2023-12-07T13:49:56;44.67;;;17.20;;
18320;SDS011;54904;54.350;18.664;2023-12-07T13:52:26;39.33;;;16.93;;
18320;SDS011;54904;54.350;18.664;2023-12-07T13:54:54;35.13;;;15.23;;
18320;SDS011;54904;54.350;18.664;2023-12-07T13:57:21;38.27;;;16.90;;
18320;SDS011;54904;54.350;18.664;2023-12-07T13:59:50;37.10;;;16.10;;
18320;SDS011;54904;54.350;18.664;2023-12-07T14:02:17;30.43;;;13.70;;
18320;SDS011;54904;54.350;18.664;2023-12-07T14:04:46;29.47;;;13.10;;
18320;SDS011;54904;54.350;18.664;2023-12-07T14:07:15;25.20;;;11.63;;
18320;SDS011;54904;54.350;18.664;2023-12-07T14:09:43;25.10;;;11.53;;
18320;SDS011;54904;54.350;18.664;2023-12-07T14:12:12;22.30;;;10.53;;
18320;SDS011;54904;54.350;18.664;2023-12-07T14:14:40;36.77;;;15.10;;